Time;durP1;ratioP1;P1;durP2;ratioP2;P2;SDS_P1;SDS_P2;PMS_P1;PMS_P2;Temp;Humidity;BMP_temperature;BMP_pressure;BME280_temperature;BME280_humidity;BME280_pressure;Samples;Min_cycle;Max_cycle;Signal;HPM_P1;HPM_P2
2021/11/04 00:00:34;;;;;;;;;;;5.00;99.90;;;;;;5091453;28;19999;-75
2021/11/04 00:03:00;;;;;;;;;;;5.10;99.90;;;;;;5092074;28;20065;-75
2021/11/04 00:05:25;;;;;;;;;;;5.10;99.90;;;;;;5085299;28;20378;-75
2021/11/04 00:07:51;;;;;;;;;;;5.20;99.90;;;;;;5073729;28;19999;-75
2021/11/04 00:10:19;;;;;;;;;;;5.20;99.90;;;;;;5091414;28;20070;-75
2021/11/04 00:12:44;;;;;;;;;;;5.10;99.90;;;;;;5091979;28;19912;-75
2021/11/04 00:15:10;;;;;;;;;;;5.10;99.90;;;;;;5091830;28;19915;-75
2021/11/04 00:17:36;;;;;;;;;;;5.00;99.90;;;;;;5091755;28;19931;-75
2021/11/04 00:20:03;;;;;;;;;;;4.90;99.90;;;;;;5080132;28;19962;-75
2021/11/04 00:22:28;;;;;;;;;;;4.90;99.90;;;;;;5088182;28;20400;-75
2021/11/04 00:24:54;;;;;;;;;;;4.90;99.90;;;;;;5088416;28;19966;-75
2021/11/04 00:27:19;;;;;;;;;;;4.90;99.90;;;;;;5088264;28;19966;-75
2021/11/04 00:29:45;;;;;;;;;;;4.90;99.90;;;;;;5087605;28;19947;-75
2021/11/04 00:32:10;;;;;;;;;;;4.90;99.90;;;;;;5088212;28;20278;-75
2021/11/04 00:34:36;;;;;;;;;;;4.90;99.90;;;;;;5088382;28;19944;-74
2021/11/04 00:37:01;;;;;;;;;;;4.90;99.90;;;;;;5090317;28;20382;-75
2021/11/04 00:39:27;;;;;;;;;;;4.90;99.90;;;;;;5091107;28;19912;-75
2021/11/04 00:41:52;;;;;;;;;;;4.90;99.90;;;;;;5091236;28;19918;-75
2021/11/04 00:44:18;;;;;;;;;;;4.90;99.90;;;;;;5091209;28;19908;-75
2021/11/04 00:46:44;;;;;;;;;;;5.00;99.90;;;;;;5091354;28;19908;-75
2021/11/04 00:49:09;;;;;;;;;;;4.90;99.90;;;;;;5083890;28;19908;-75
2021/11/04 00:51:35;;;;;;;;;;;5.00;99.90;;;;;;5070497;28;19999;-75
2021/11/04 00:54:00;;;;;;;;;;;5.00;99.90;;;;;;5074314;28;19909;-75
2021/11/04 00:56:26;;;;;;;;;;;5.00;99.90;;;;;;5075176;28;19995;-74
2021/11/04 00:58:51;;;;;;;;;;;5.10;99.90;;;;;;5075332;28;20362;-75
2021/11/04 01:01:18;;;;;;;;;;;5.10;99.90;;;;;;5074437;28;19909;-75
2021/11/04 01:03:44;;;;;;;;;;;5.10;99.90;;;;;;5074873;28;20083;-75
2021/11/04 01:06:09;;;;;;;;;;;5.10;99.90;;;;;;5056984;28;20517;-74
2021/11/04 01:08:35;;;;;;;;;;;5.20;99.90;;;;;;5075080;28;19955;-75
2021/11/04 01:11:00;;;;;;;;;;;5.20;99.90;;;;;;5074264;28;19966;-75
2021/11/04 01:13:26;;;;;;;;;;;5.20;99.90;;;;;;5074549;28;19916;-74
2021/11/04 01:15:51;;;;;;;;;;;5.30;99.90;;;;;;5074822;28;20245;-75
2021/11/04 01:18:17;;;;;;;;;;;5.30;99.90;;;;;;5074509;28;19909;-75
2021/11/04 01:20:42;;;;;;;;;;;5.30;99.90;;;;;;5094359;28;19914;-75
2021/11/04 01:23:07;;;;;;;;;;;5.30;99.90;;;;;;5094839;28;19934;-74
2021/11/04 01:25:33;;;;;;;;;;;5.30;99.90;;;;;;5094847;28;20385;-75
2021/11/04 01:27:59;;;;;;;;;;;5.30;99.90;;;;;;5076566;28;19914;-75
2021/11/04 01:30:24;;;;;;;;;;;5.30;99.90;;;;;;5094222;28;19999;-74
2021/11/04 01:32:50;;;;;;;;;;;5.30;99.90;;;;;;5094635;28;19912;-74
2021/11/04 01:35:15;;;;;;;;;;;5.30;99.90;;;;;;5094802;28;19908;-75
2021/11/04 01:37:40;;;;;;;;;;;5.20;99.90;;;;;;5094824;28;19916;-74
2021/11/04 01:40:06;;;;;;;;;;;5.20;99.90;;;;;;5094075;28;19931;-75
2021/11/04 01:42:32;;;;;;;;;;;5.20;99.90;;;;;;5076525;28;19962;-75
2021/11/04 01:44:57;;;;;;;;;;;5.20;99.90;;;;;;5094708;28;19916;-75
2021/11/04 01:47:23;;;;;;;;;;;5.20;99.90;;;;;;5094462;28;19939;-75
2021/11/04 01:49:48;;;;;;;;;;;5.20;99.90;;;;;;5080826;28;19913;-75
2021/11/04 01:52:14;;;;;;;;;;;5.20;99.90;;;;;;5073984;28;19912;-75
2021/11/04 01:54:40;;;;;;;;;;;5.20;99.90;;;;;;5073954;28;19915;-75
2021/11/04 01:57:05;;;;;;;;;;;5.30;99.90;;;;;;5074189;28;19909;-75
2021/11/04 01:59:31;;;;;;;;;;;5.20;99.90;;;;;;5073727;28;19908;-75
2021/11/04 02:02:07;;;;;;;;;;;5.20;99.90;;;;;;5055644;28;20290;-75
2021/11/04 02:04:41;;;;;;;;;;;5.20;99.90;;;;;;5072834;28;20491;-75
2021/11/04 02:07:08;;;;;;;;;;;5.20;99.90;;;;;;5073988;28;19908;-75
2021/11/04 02:09:50;;;;;;;;;;;5.20;99.90;;;;;;5073897;28;20248;-76
2021/11/04 02:12:28;;;;;;;;;;;5.20;99.90;;;;;;5073511;28;19913;-75
2021/11/04 02:14:55;;;;;;;;;;;5.20;99.90;;;;;;5073388;28;20442;-75
2021/11/04 02:17:23;;;;;;;;;;;5.20;99.90;;;;;;5072526;28;20228;-75
2021/11/04 02:19:48;;;;;;;;;;;5.20;99.90;;;;;;5085471;28;19981;-75
2021/11/04 02:22:20;;;;;;;;;;;5.20;99.90;;;;;;5075557;28;19908;-75
2021/11/04 02:24:49;;;;;;;;;;;5.20;99.90;;;;;;5093601;28;20371;-75
2021/11/04 02:27:15;;;;;;;;;;;5.20;99.90;;;;;;5093572;28;19962;-75
2021/11/04 02:29:43;;;;;;;;;;;5.20;99.90;;;;;;5092927;28;19918;-75
2021/11/04 02:32:09;;;;;;;;;;;5.20;99.90;;;;;;5093048;28;20374;-75
2021/11/04 02:34:36;;;;;;;;;;;5.20;99.90;;;;;;5093004;28;19908;-74
2021/11/04 02:37:01;;;;;;;;;;;5.20;99.90;;;;;;5093005;28;19912;-75
2021/11/04 02:39:28;;;;;;;;;;;5.20;99.90;;;;;;5092953;28;19919;-75
2021/11/04 02:41:54;;;;;;;;;;;5.20;99.90;;;;;;5092781;28;19961;-75
2021/11/04 02:44:20;;;;;;;;;;;5.20;99.90;;;;;;5074864;28;19908;-75
2021/11/04 02:46:46;;;;;;;;;;;5.10;99.90;;;;;;5074693;28;19915;-75
2021/11/04 02:49:11;;;;;;;;;;;5.10;99.90;;;;;;5084960;28;19908;-75
2021/11/04 02:51:38;;;;;;;;;;;5.10;99.90;;;;;;5071832;28;20183;-75
2021/11/04 02:54:05;;;;;;;;;;;5.10;99.90;;;;;;5073003;28;20268;-75
2021/11/04 02:56:47;;;;;;;;;;;5.00;99.90;;;;;;5072545;28;19931;-75
2021/11/04 02:59:14;;;;;;;;;;;4.90;99.90;;;;;;5072641;28;19909;-75
2021/11/04 03:01:41;;;;;;;;;;;5.00;99.90;;;;;;5071983;28;19908;-75
2021/11/04 03:04:06;;;;;;;;;;;4.90;99.90;;;;;;5054726;28;20143;-75
2021/11/04 03:06:32;;;;;;;;;;;4.90;99.90;;;;;;5054623;28;20298;-75
2021/11/04 03:08:57;;;;;;;;;;;4.90;99.90;;;;;;5072858;28;19912;-75
2021/11/04 03:11:23;;;;;;;;;;;4.90;99.90;;;;;;5071839;28;19970;-75
2021/11/04 03:13:48;;;;;;;;;;;4.90;99.90;;;;;;5072403;28;19909;-75
2021/11/04 03:16:15;;;;;;;;;;;4.90;99.90;;;;;;5072083;28;19908;-75
2021/11/04 03:18:41;;;;;;;;;;;4.90;99.90;;;;;;5075427;28;19991;-75
2021/11/04 03:21:06;;;;;;;;;;;4.80;99.90;;;;;;5073664;28;19999;-75
2021/11/04 03:23:32;;;;;;;;;;;4.80;99.90;;;;;;5092566;28;19908;-75
2021/11/04 03:25:59;;;;;;;;;;;4.80;99.90;;;;;;5092515;28;19912;-74
2021/11/04 03:28:25;;;;;;;;;;;4.80;99.90;;;;;;5074188;28;19952;-75
2021/11/04 03:30:51;;;;;;;;;;;4.70;99.90;;;;;;5091724;28;19961;-75
2021/11/04 03:33:18;;;;;;;;;;;4.70;99.90;;;;;;5073945;28;19912;-75
2021/11/04 03:35:44;;;;;;;;;;;4.60;99.90;;;;;;5074236;28;19957;-75
2021/11/04 03:38:10;;;;;;;;;;;4.60;99.90;;;;;;5092139;28;19908;-74
2021/11/04 03:40:36;;;;;;;;;;;4.60;99.90;;;;;;5091712;28;19915;-75
2021/11/04 03:43:02;;;;;;;;;;;4.60;99.90;;;;;;5073951;28;19908;-74
2021/11/04 03:45:28;;;;;;;;;;;4.60;99.90;;;;;;5091832;28;19912;-74
2021/11/04 03:47:54;;;;;;;;;;;4.60;99.90;;;;;;5073797;28;20421;-74
2021/11/04 03:50:23;;;;;;;;;;;4.50;99.90;;;;;;5074116;28;19954;-73
2021/11/04 03:52:49;;;;;;;;;;;4.50;99.90;;;;;;5071637;28;19912;-74
2021/11/04 03:55:15;;;;;;;;;;;4.50;99.90;;;;;;5071587;28;19943;-75
2021/11/04 03:57:41;;;;;;;;;;;4.40;99.90;;;;;;5053683;28;19909;-75
2021/11/04 04:00:08;;;;;;;;;;;4.40;99.90;;;;;;5070860;28;19909;-74
2021/11/04 04:02:34;;;;;;;;;;;4.40;99.90;;;;;;5053283;28;19908;-75
2021/11/04 04:05:00;;;;;;;;;;;4.30;99.90;;;;;;5071468;28;19954;-75
2021/11/04 04:07:26;;;;;;;;;;;4.20;99.90;;;;;;5071358;28;19908;-75
2021/11/04 04:09:52;;;;;;;;;;;4.20;99.90;;;;;;5052878;28;20423;-75
2021/11/04 04:12:18;;;;;;;;;;;4.10;99.90;;;;;;5071245;28;20007;-75
2021/11/04 04:14:43;;;;;;;;;;;4.00;99.90;;;;;;5071123;28;19912;-75
2021/11/04 04:17:09;;;;;;;;;;;4.00;99.90;;;;;;5071080;28;19908;-75
2021/11/04 04:19:34;;;;;;;;;;;4.00;99.90;;;;;;5070322;28;19912;-74
2021/11/04 04:22:00;;;;;;;;;;;4.00;99.90;;;;;;5088149;28;20007;-74
2021/11/04 04:24:25;;;;;;;;;;;4.00;99.90;;;;;;5107596;28;20278;-75
2021/11/04 04:26:51;;;;;;;;;;;4.00;99.90;;;;;;5076882;28;19961;-75
2021/11/04 04:29:16;;;;;;;;;;;3.90;99.90;;;;;;5073130;28;19954;-75
2021/11/04 04:31:42;;;;;;;;;;;4.00;99.90;;;;;;5091011;28;20252;-75
2021/11/04 04:34:08;;;;;;;;;;;4.00;99.90;;;;;;5091659;28;19965;-75
2021/11/04 04:36:34;;;;;;;;;;;4.10;99.90;;;;;;5091375;28;19915;-75
2021/11/04 04:38:59;;;;;;;;;;;4.00;99.90;;;;;;5073156;28;19912;-75
2021/11/04 04:41:25;;;;;;;;;;;3.90;99.90;;;;;;5072745;28;19908;-75
2021/11/04 04:43:50;;;;;;;;;;;3.80;99.90;;;;;;5073004;28;20366;-75
2021/11/04 04:46:18;;;;;;;;;;;3.80;99.90;;;;;;5091245;28;19991;-74
2021/11/04 04:48:43;;;;;;;;;;;3.80;99.90;;;;;;5069431;28;19912;-74
2021/11/04 04:51:09;;;;;;;;;;;3.70;99.90;;;;;;5059842;28;19935;-75
2021/11/04 04:53:34;;;;;;;;;;;3.80;99.90;;;;;;5091174;28;19916;-75
2021/11/04 04:56:00;;;;;;;;;;;3.80;99.90;;;;;;5091681;28;19908;-74
2021/11/04 04:58:25;;;;;;;;;;;3.80;99.90;;;;;;5072856;28;20371;-75
2021/11/04 05:00:50;;;;;;;;;;;3.70;99.90;;;;;;5090656;28;20535;-75
2021/11/04 05:03:16;;;;;;;;;;;3.80;99.90;;;;;;5073090;28;19931;-75
2021/11/04 05:05:42;;;;;;;;;;;3.70;99.90;;;;;;5072915;28;19967;-74
2021/11/04 05:08:07;;;;;;;;;;;3.70;99.90;;;;;;5091090;28;19912;-75
2021/11/04 05:10:33;;;;;;;;;;;3.60;99.90;;;;;;5072393;28;19916;-75
2021/11/04 05:12:58;;;;;;;;;;;3.60;99.90;;;;;;5072724;28;19912;-75
2021/11/04 05:15:24;;;;;;;;;;;3.50;99.90;;;;;;5090951;28;19920;-74
2021/11/04 05:17:49;;;;;;;;;;;3.50;99.90;;;;;;5090946;28;19912;-75
2021/11/04 05:20:16;;;;;;;;;;;3.50;99.90;;;;;;5074183;28;19915;-75
2021/11/04 05:22:41;;;;;;;;;;;3.60;99.90;;;;;;5070608;28;19954;-75
2021/11/04 05:25:07;;;;;;;;;;;3.60;99.90;;;;;;5070731;28;20381;-75
2021/11/04 05:27:32;;;;;;;;;;;3.60;99.90;;;;;;5070614;28;20428;-75
2021/11/04 05:29:58;;;;;;;;;;;3.60;99.90;;;;;;5052160;28;19915;-75
2021/11/04 05:32:24;;;;;;;;;;;3.60;99.90;;;;;;5070658;28;19912;-75
2021/11/04 05:34:49;;;;;;;;;;;3.60;99.90;;;;;;5070559;28;19908;-75
2021/11/04 05:37:15;;;;;;;;;;;3.70;99.90;;;;;;5052533;28;19931;-75
2021/11/04 05:39:40;;;;;;;;;;;3.70;99.90;;;;;;5052768;28;19909;-75
2021/11/04 05:42:06;;;;;;;;;;;3.60;99.90;;;;;;5074052;28;19915;-75
2021/11/04 05:44:32;;;;;;;;;;;3.70;99.90;;;;;;5074814;28;19916;-75
2021/11/04 05:46:58;;;;;;;;;;;3.60;99.90;;;;;;5056930;28;19942;-75
2021/11/04 05:49:23;;;;;;;;;;;3.60;99.90;;;;;;5065591;28;20354;-75
2021/11/04 05:51:49;;;;;;;;;;;3.60;99.90;;;;;;5094315;28;20008;-74
2021/11/04 05:54:15;;;;;;;;;;;3.70;99.90;;;;;;5076825;28;19908;-75
2021/11/04 05:56:41;;;;;;;;;;;3.60;99.90;;;;;;5094849;28;20398;-75
2021/11/04 05:59:06;;;;;;;;;;;3.60;99.90;;;;;;5094806;28;19919;-75
2021/11/04 06:01:32;;;;;;;;;;;3.70;99.90;;;;;;5094595;28;20011;-75
2021/11/04 06:03:57;;;;;;;;;;;3.70;99.90;;;;;;5094869;28;19918;-74
2021/11/04 06:06:23;;;;;;;;;;;3.80;99.90;;;;;;5094799;28;19954;-75
2021/11/04 06:08:48;;;;;;;;;;;3.80;99.90;;;;;;5076261;28;19908;-75
2021/11/04 06:11:14;;;;;;;;;;;3.80;99.90;;;;;;5075451;28;20015;-75
2021/11/04 06:13:39;;;;;;;;;;;3.80;99.90;;;;;;5094410;28;19919;-75
2021/11/04 06:16:12;;;;;;;;;;;3.90;99.90;;;;;;5094924;28;19951;-75
2021/11/04 06:18:37;;;;;;;;;;;3.90;99.90;;;;;;5091693;28;20398;-73
2021/11/04 06:21:03;;;;;;;;;;;3.90;99.90;;;;;;5055747;28;19908;-74
2021/11/04 06:23:29;;;;;;;;;;;3.90;99.90;;;;;;5074194;28;19999;-74
2021/11/04 06:25:54;;;;;;;;;;;3.90;99.90;;;;;;5074438;28;19908;-74
2021/11/04 06:28:20;;;;;;;;;;;4.00;99.90;;;;;;5074913;28;19908;-73
2021/11/04 06:30:45;;;;;;;;;;;3.90;99.90;;;;;;5056277;28;19909;-74
2021/11/04 06:33:11;;;;;;;;;;;3.90;99.90;;;;;;5074720;28;20391;-74
2021/11/04 06:35:36;;;;;;;;;;;3.90;99.90;;;;;;5074684;28;19909;-74
2021/11/04 06:38:02;;;;;;;;;;;3.90;99.90;;;;;;5056041;28;19916;-75
2021/11/04 06:40:27;;;;;;;;;;;4.00;99.90;;;;;;5072525;28;19912;-75
2021/11/04 06:42:53;;;;;;;;;;;4.00;99.90;;;;;;5073770;28;19931;-74
2021/11/04 06:45:19;;;;;;;;;;;4.00;99.90;;;;;;5073932;28;19909;-75
2021/11/04 06:47:50;;;;;;;;;;;4.00;99.90;;;;;;5055943;28;19909;-74
2021/11/04 06:50:20;;;;;;;;;;;4.00;99.90;;;;;;5072082;28;19912;-75
2021/11/04 06:52:59;;;;;;;;;;;4.00;99.90;;;;;;5055454;28;19916;-74
2021/11/04 06:55:25;;;;;;;;;;;4.00;99.90;;;;;;5055247;28;20268;-74
2021/11/04 06:57:52;;;;;;;;;;;4.00;99.90;;;;;;5055151;28;19970;-75
2021/11/04 07:00:17;;;;;;;;;;;4.00;99.90;;;;;;5072790;28;19912;-75
2021/11/04 07:02:47;;;;;;;;;;;4.10;99.90;;;;;;5055129;28;19916;-74
2021/11/04 07:05:13;;;;;;;;;;;4.20;99.90;;;;;;5072973;28;19908;-74
2021/11/04 07:07:51;;;;;;;;;;;4.20;99.90;;;;;;5072560;28;19962;-74
2021/11/04 07:10:18;;;;;;;;;;;4.20;99.90;;;;;;5054803;28;19919;-74
2021/11/04 07:12:45;;;;;;;;;;;4.30;99.90;;;;;;5072707;28;20011;-74
2021/11/04 07:15:11;;;;;;;;;;;4.30;99.90;;;;;;5073141;28;19908;-75
2021/11/04 07:17:39;;;;;;;;;;;4.30;99.90;;;;;;5072430;28;19994;-74
2021/11/04 07:20:05;;;;;;;;;;;4.30;99.90;;;;;;5086594;28;20359;-75
2021/11/04 07:22:50;;;;;;;;;;;4.30;99.90;;;;;;5074353;28;19961;-75
2021/11/04 07:25:17;;;;;;;;;;;4.40;99.90;;;;;;5097300;28;19952;-74
2021/11/04 07:28:04;;;;;;;;;;;4.40;99.90;;;;;;5097734;28;19915;-75
2021/11/04 07:30:29;;;;;;;;;;;4.40;99.90;;;;;;5079292;28;19916;-73
2021/11/04 07:32:55;;;;;;;;;;;4.30;99.90;;;;;;5079917;28;19912;-74
2021/11/04 07:35:22;;;;;;;;;;;4.40;99.90;;;;;;5097805;28;19914;-75
2021/11/04 07:37:48;;;;;;;;;;;4.40;99.90;;;;;;5100918;28;19915;-74
2021/11/04 07:40:14;;;;;;;;;;;4.40;99.90;;;;;;5079525;28;20374;-74
2021/11/04 07:42:43;;;;;;;;;;;4.50;99.90;;;;;;5096914;28;19908;-73
2021/11/04 07:45:09;;;;;;;;;;;4.50;99.90;;;;;;5078666;28;19999;-75
2021/11/04 07:47:36;;;;;;;;;;;4.60;99.90;;;;;;5092043;28;20392;-75
2021/11/04 07:50:01;;;;;;;;;;;4.60;99.90;;;;;;5058938;28;20011;-75
2021/11/04 07:52:27;;;;;;;;;;;4.70;99.90;;;;;;5071827;28;20007;-74
2021/11/04 07:54:52;;;;;;;;;;;4.60;99.90;;;;;;5053587;28;19971;-75
2021/11/04 07:57:18;;;;;;;;;;;4.70;99.90;;;;;;5071303;28;19919;-75
2021/11/04 07:59:43;;;;;;;;;;;4.70;99.90;;;;;;5071743;28;19966;-74
2021/11/04 08:02:09;;;;;;;;;;;4.70;99.90;;;;;;5052909;28;19908;-74
2021/11/04 08:04:34;;;;;;;;;;;4.70;99.90;;;;;;5053488;28;19991;-74
2021/11/04 08:07:00;;;;;;;;;;;4.70;99.90;;;;;;5071830;28;19918;-75
2021/11/04 08:09:25;;;;;;;;;;;4.70;99.90;;;;;;5071760;28;19970;-75
2021/11/04 08:11:51;;;;;;;;;;;4.60;99.90;;;;;;5053923;28;19916;-74
2021/11/04 08:14:16;;;;;;;;;;;4.50;99.90;;;;;;5054031;28;19908;-72
2021/11/04 08:16:42;;;;;;;;;;;4.50;99.90;;;;;;5072305;28;20287;-74
2021/11/04 08:19:07;;;;;;;;;;;4.50;99.90;;;;;;5079379;28;19924;-74
2021/11/04 08:21:33;;;;;;;;;;;4.50;99.90;;;;;;5072472;28;19909;-73
2021/11/04 08:23:58;;;;;;;;;;;4.50;99.90;;;;;;5053510;28;20422;-74
2021/11/04 08:26:24;;;;;;;;;;;4.60;99.90;;;;;;5051741;28;20370;-74
2021/11/04 08:28:52;;;;;;;;;;;4.60;99.90;;;;;;5053310;28;19908;-74
2021/11/04 08:31:18;;;;;;;;;;;4.60;99.90;;;;;;5053074;28;19913;-74
2021/11/04 08:33:43;;;;;;;;;;;4.60;99.90;;;;;;5054398;28;19913;-74
2021/11/04 08:36:08;;;;;;;;;;;4.70;99.90;;;;;;5071282;28;20062;-74
2021/11/04 08:38:35;;;;;;;;;;;4.60;99.90;;;;;;5054097;28;19935;-74
2021/11/04 08:41:00;;;;;;;;;;;4.70;99.90;;;;;;5054548;28;20374;-74
2021/11/04 08:43:26;;;;;;;;;;;4.70;99.90;;;;;;5071494;28;19909;-74
2021/11/04 08:45:51;;;;;;;;;;;4.70;99.90;;;;;;5071288;28;19915;-72
2021/11/04 08:48:18;;;;;;;;;;;4.80;99.90;;;;;;5070941;28;19915;-73
2021/11/04 08:50:44;;;;;;;;;;;4.70;99.90;;;;;;5073043;28;19908;-73
2021/11/04 08:53:10;;;;;;;;;;;4.70;99.90;;;;;;5091197;28;20321;-74
2021/11/04 08:55:36;;;;;;;;;;;4.70;99.90;;;;;;5091226;28;20006;-74
2021/11/04 08:58:02;;;;;;;;;;;4.80;99.90;;;;;;5073007;28;19959;-74
2021/11/04 09:00:27;;;;;;;;;;;4.90;99.90;;;;;;5073780;28;20251;-73
2021/11/04 09:02:53;;;;;;;;;;;4.80;99.90;;;;;;5092576;28;20363;-74
2021/11/04 09:05:18;;;;;;;;;;;4.80;99.90;;;;;;5074339;28;19908;-74
2021/11/04 09:07:44;;;;;;;;;;;4.80;99.90;;;;;;5092310;28;19958;-74
2021/11/04 09:10:10;;;;;;;;;;;4.80;99.90;;;;;;5090916;28;19916;-73
2021/11/04 09:12:37;;;;;;;;;;;4.80;99.90;;;;;;5072981;28;19920;-73
2021/11/04 09:15:03;;;;;;;;;;;4.90;99.90;;;;;;5094200;28;19912;-74
2021/11/04 09:17:29;;;;;;;;;;;5.00;99.90;;;;;;5095341;28;19916;-74
2021/11/04 09:19:54;;;;;;;;;;;5.00;99.90;;;;;;5062751;28;19912;-73
2021/11/04 09:22:20;;;;;;;;;;;5.00;99.90;;;;;;5075148;28;19995;-74
2021/11/04 09:24:46;;;;;;;;;;;5.00;99.90;;;;;;5057462;28;19955;-74
2021/11/04 09:27:12;;;;;;;;;;;5.00;99.90;;;;;;5056630;28;19909;-74
2021/11/04 09:29:38;;;;;;;;;;;5.10;99.90;;;;;;5076687;28;19990;-74
2021/11/04 09:32:06;;;;;;;;;;;5.20;99.90;;;;;;5060006;28;19912;-74
2021/11/04 09:34:32;;;;;;;;;;;5.10;99.90;;;;;;5058808;28;19909;-74
2021/11/04 09:36:57;;;;;;;;;;;5.20;99.90;;;;;;5074408;28;20295;-74
2021/11/04 09:39:23;;;;;;;;;;;5.10;99.90;;;;;;5074508;28;20355;-73
2021/11/04 09:41:49;;;;;;;;;;;5.20;99.90;;;;;;5074267;28;19916;-74
2021/11/04 09:44:15;;;;;;;;;;;5.20;99.90;;;;;;5074336;28;20374;-74
2021/11/04 09:46:40;;;;;;;;;;;5.30;99.90;;;;;;5074619;28;19919;-74
2021/11/04 09:49:06;;;;;;;;;;;5.40;99.90;;;;;;5063053;28;19908;-74
2021/11/04 09:51:32;;;;;;;;;;;5.50;99.90;;;;;;5094223;28;20358;-74
2021/11/04 09:53:57;;;;;;;;;;;5.50;99.90;;;;;;5094695;28;19912;-74
2021/11/04 09:56:23;;;;;;;;;;;5.50;99.90;;;;;;5075998;28;19916;-73
2021/11/04 09:58:49;;;;;;;;;;;5.60;99.90;;;;;;5094463;28;19912;-73
2021/11/04 10:01:24;;;;;;;;;;;5.60;99.90;;;;;;5094194;28;19914;-74
2021/11/04 10:03:49;;;;;;;;;;;5.50;99.90;;;;;;5094838;28;19915;-74
2021/11/04 10:06:19;;;;;;;;;;;5.50;99.90;;;;;;5094571;28;19908;-74
2021/11/04 10:08:48;;;;;;;;;;;5.50;99.90;;;;;;5094218;28;19908;-74
2021/11/04 10:11:14;;;;;;;;;;;5.60;99.90;;;;;;5093836;28;19923;-73
2021/11/04 10:13:40;;;;;;;;;;;5.70;99.90;;;;;;5076628;28;19912;-72
2021/11/04 10:16:09;;;;;;;;;;;5.70;99.90;;;;;;5095680;28;19915;-74
2021/11/04 10:18:42;;;;;;;;;;;5.80;99.90;;;;;;5073479;28;19912;-74
2021/11/04 10:21:08;;;;;;;;;;;5.80;99.90;;;;;;5055128;28;19912;-73
2021/11/04 10:23:41;;;;;;;;;;;6.00;99.90;;;;;;5073367;28;19915;-73
2021/11/04 10:26:12;;;;;;;;;;;6.00;99.90;;;;;;5073160;28;19914;-74
2021/11/04 10:28:39;;;;;;;;;;;6.00;99.90;;;;;;5056143;28;19908;-74
2021/11/04 10:31:09;;;;;;;;;;;6.20;99.90;;;;;;5055408;28;19915;-74
2021/11/04 10:33:36;;;;;;;;;;;6.20;99.90;;;;;;5074031;28;20496;-74
2021/11/04 10:36:02;;;;;;;;;;;6.10;99.90;;;;;;5055652;28;19959;-73
2021/11/04 10:38:31;;;;;;;;;;;6.20;99.90;;;;;;5073960;28;20087;-74
2021/11/04 10:40:57;;;;;;;;;;;6.20;99.90;;;;;;5072849;28;20290;-74
2021/11/04 10:43:23;;;;;;;;;;;6.20;99.90;;;;;;5073475;28;19908;-74
2021/11/04 10:45:57;;;;;;;;;;;6.10;99.90;;;;;;5073121;28;19908;-75
2021/11/04 10:48:23;;;;;;;;;;;6.10;99.90;;;;;;5073629;28;19944;-74
2021/11/04 10:50:49;;;;;;;;;;;5.90;99.90;;;;;;5074114;28;19947;-73
2021/11/04 10:53:20;;;;;;;;;;;5.90;99.90;;;;;;5093602;28;19912;-74
2021/11/04 10:55:47;;;;;;;;;;;5.80;99.90;;;;;;5093817;28;19912;-74
2021/11/04 10:58:31;;;;;;;;;;;5.90;99.90;;;;;;5093594;28;19974;-74
2021/11/04 11:00:57;;;;;;;;;;;5.70;99.90;;;;;;5093212;28;20294;-74
2021/11/04 11:03:23;;;;;;;;;;;5.60;99.90;;;;;;5093525;28;19916;-73
2021/11/04 11:05:49;;;;;;;;;;;5.70;99.90;;;;;;5093630;28;20001;-72
2021/11/04 11:08:15;;;;;;;;;;;5.70;99.90;;;;;;5078025;28;19908;-74
2021/11/04 11:10:41;;;;;;;;;;;5.60;99.90;;;;;;5092335;28;20166;-74
2021/11/04 11:13:07;;;;;;;;;;;5.60;99.90;;;;;;5092686;28;19912;-74
2021/11/04 11:15:33;;;;;;;;;;;5.70;99.90;;;;;;5092377;28;19908;-74
2021/11/04 11:18:05;;;;;;;;;;;5.60;99.90;;;;;;5074425;28;20359;-74
2021/11/04 11:20:31;;;;;;;;;;;5.50;99.90;;;;;;5072765;28;19909;-74
2021/11/04 11:22:57;;;;;;;;;;;5.50;99.90;;;;;;5054300;28;20321;-75
2021/11/04 11:25:23;;;;;;;;;;;5.50;99.90;;;;;;5072056;28;19955;-74
2021/11/04 11:27:52;;;;;;;;;;;5.50;99.90;;;;;;5072290;28;19913;-74
2021/11/04 11:30:17;;;;;;;;;;;5.50;99.90;;;;;;5071524;28;20404;-74
2021/11/04 11:32:46;;;;;;;;;;;5.50;99.90;;;;;;5072098;28;19990;-74
2021/11/04 11:35:19;;;;;;;;;;;5.40;99.90;;;;;;5071850;28;20305;-74
2021/11/04 11:37:54;;;;;;;;;;;5.50;99.90;;;;;;5071818;28;20327;-74
2021/11/04 11:40:19;;;;;;;;;;;5.70;99.90;;;;;;5053456;28;19909;-74
2021/11/04 11:42:54;;;;;;;;;;;5.90;99.90;;;;;;5071608;28;19978;-74
2021/11/04 11:45:20;;;;;;;;;;;5.90;99.90;;;;;;5071619;28;19987;-74
2021/11/04 11:47:46;;;;;;;;;;;5.90;99.90;;;;;;5053660;28;20002;-74
2021/11/04 11:50:21;;;;;;;;;;;6.00;99.90;;;;;;5086947;28;19960;-74
2021/11/04 11:53:13;;;;;;;;;;;6.20;99.90;;;;;;5073519;28;20008;-75
2021/11/04 11:55:45;;;;;;;;;;;6.40;99.90;;;;;;5088564;28;19954;-74
2021/11/04 11:58:14;;;;;;;;;;;6.30;99.90;;;;;;5091252;28;19912;-73
2021/11/04 12:00:52;;;;;;;;;;;6.30;99.90;;;;;;5073371;28;20251;-74
2021/11/04 12:03:35;;;;;;;;;;;6.50;99.90;;;;;;5073031;28;19947;-74
2021/11/04 12:06:20;;;;;;;;;;;6.50;99.90;;;;;;5073365;28;20018;-74
2021/11/04 12:08:47;;;;;;;;;;;6.60;99.90;;;;;;5066238;28;20314;-75
2021/11/04 12:11:32;;;;;;;;;;;6.70;99.90;;;;;;5090985;28;19916;-73
2021/11/04 12:13:58;;;;;;;;;;;6.80;99.90;;;;;;5091034;28;19935;-74
2021/11/04 12:16:24;;;;;;;;;;;6.60;99.90;;;;;;5071784;28;20002;-74
2021/11/04 12:18:50;;;;;;;;;;;6.60;99.90;;;;;;5052949;28;19919;-74
2021/11/04 12:21:26;;;;;;;;;;;6.70;99.90;;;;;;5070693;28;19912;-75
2021/11/04 12:23:52;;;;;;;;;;;6.50;99.90;;;;;;5071155;28;19909;-75
2021/11/04 12:26:29;;;;;;;;;;;6.60;99.90;;;;;;5052939;28;19912;-75
2021/11/04 12:28:54;;;;;;;;;;;6.70;99.90;;;;;;5053163;28;20326;-75
2021/11/04 12:31:22;;;;;;;;;;;6.90;99.90;;;;;;5052494;28;19912;-74
2021/11/04 12:33:55;;;;;;;;;;;7.00;99.90;;;;;;5070932;28;19912;-75
2021/11/04 12:36:29;;;;;;;;;;;7.10;99.90;;;;;;5070995;28;19908;-74
2021/11/04 12:38:54;;;;;;;;;;;7.00;99.90;;;;;;5052853;28;19916;-74
2021/11/04 12:41:21;;;;;;;;;;;6.90;99.90;;;;;;5070438;28;19908;-75
2021/11/04 12:43:48;;;;;;;;;;;6.70;99.90;;;;;;5071102;28;19947;-74
2021/11/04 12:46:21;;;;;;;;;;;6.60;99.90;;;;;;5071082;28;20187;-74
2021/11/04 12:48:51;;;;;;;;;;;6.70;99.90;;;;;;5061069;28;20270;-75
2021/11/04 12:51:17;;;;;;;;;;;6.90;99.90;;;;;;5083719;28;19908;-75
2021/11/04 12:53:49;;;;;;;;;;;6.70;99.90;;;;;;5097295;28;19918;-74
2021/11/04 12:56:14;;;;;;;;;;;6.70;99.90;;;;;;5097449;28;19915;-75
2021/11/04 12:58:40;;;;;;;;;;;6.60;99.90;;;;;;5097226;28;19908;-74
2021/11/04 13:01:05;;;;;;;;;;;6.50;99.90;;;;;;5096933;28;19915;-75
2021/11/04 13:03:31;;;;;;;;;;;6.40;99.90;;;;;;5097387;28;19912;-75
2021/11/04 13:05:57;;;;;;;;;;;6.30;99.90;;;;;;5097105;28;19963;-74
2021/11/04 13:08:22;;;;;;;;;;;6.20;99.90;;;;;;5097210;28;19977;-74
2021/11/04 13:10:48;;;;;;;;;;;6.30;99.90;;;;;;5096024;28;19920;-74
2021/11/04 13:13:14;;;;;;;;;;;6.20;99.90;;;;;;5078666;28;19919;-73
2021/11/04 13:15:41;;;;;;;;;;;6.10;99.90;;;;;;5095967;28;19908;-75
2021/11/04 13:18:07;;;;;;;;;;;6.20;99.90;;;;;;5087728;28;19926;-73
2021/11/04 13:20:48;;;;;;;;;;;6.20;99.90;;;;;;5077287;28;19912;-75
2021/11/04 13:23:23;;;;;;;;;;;6.40;99.90;;;;;;5077706;28;19912;-75
2021/11/04 13:25:50;;;;;;;;;;;6.50;99.90;;;;;;5096249;28;19912;-75
2021/11/04 13:28:17;;;;;;;;;;;6.70;99.90;;;;;;5095923;28;19912;-75
2021/11/04 13:30:47;;;;;;;;;;;7.00;99.90;;;;;;5077139;28;19918;-75
2021/11/04 13:33:13;;;;;;;;;;;7.20;99.90;;;;;;5095368;28;19956;-74
2021/11/04 13:35:42;;;;;;;;;;;7.50;99.90;;;;;;5095602;28;19913;-75
2021/11/04 13:38:13;;;;;;;;;;;7.30;99.90;;;;;;5095720;28;19912;-75
2021/11/04 13:40:44;;;;;;;;;;;7.30;99.90;;;;;;5076185;28;19915;-74
2021/11/04 13:43:10;;;;;;;;;;;7.30;99.90;;;;;;5095634;28;19908;-75
2021/11/04 13:45:36;;;;;;;;;;;7.00;99.90;;;;;;5094908;28;20328;-75
2021/11/04 13:48:02;;;;;;;;;;;7.10;99.90;;;;;;5079873;28;19915;-75
2021/11/04 13:50:41;;;;;;;;;;;7.10;99.90;;;;;;5056671;28;19908;-74
2021/11/04 13:53:20;;;;;;;;;;;7.00;99.90;;;;;;5056925;28;20008;-75
2021/11/04 13:55:47;;;;;;;;;;;7.00;99.90;;;;;;5057195;28;19919;-74
2021/11/04 13:58:13;;;;;;;;;;;7.00;99.90;;;;;;5056725;28;19998;-75
2021/11/04 14:00:38;;;;;;;;;;;6.80;99.90;;;;;;5073099;28;19912;-74
2021/11/04 14:03:05;;;;;;;;;;;6.70;99.90;;;;;;5074592;28;19915;-74
2021/11/04 14:05:50;;;;;;;;;;;6.40;99.90;;;;;;5074829;28;20333;-74
2021/11/04 14:08:19;;;;;;;;;;;6.40;99.90;;;;;;5057081;28;19915;-73
2021/11/04 14:10:45;;;;;;;;;;;6.50;99.90;;;;;;5085525;28;19920;-74
2021/11/04 14:13:10;;;;;;;;;;;6.60;99.90;;;;;;5094694;28;19973;-74
2021/11/04 14:15:37;;;;;;;;;;;6.60;99.90;;;;;;5094581;28;20325;-73
2021/11/04 14:18:03;;;;;;;;;;;6.60;99.90;;;;;;5076534;28;19912;-74
2021/11/04 14:20:30;;;;;;;;;;;6.60;99.90;;;;;;5076207;28;19916;-74
2021/11/04 14:22:56;;;;;;;;;;;6.70;99.90;;;;;;5094794;28;19908;-75
2021/11/04 14:25:21;;;;;;;;;;;6.60;99.90;;;;;;5076367;28;19919;-75
2021/11/04 14:27:48;;;;;;;;;;;6.30;99.90;;;;;;5079550;28;19994;-75
2021/11/04 14:30:13;;;;;;;;;;;6.20;99.90;;;;;;5080372;28;19978;-75